sensor_id;sensor_type;location;lat;lon;timestamp;pressure;altitude;pressure_sealevel;temperature;humidity
29903;BME280;30288;50.514;9.678;2023-03-22T00:00:11;98439.22;;;4.42;100.00
29903;BME280;30288;50.514;9.678;2023-03-22T00:02:18;98439.25;;;4.32;100.00
29903;BME280;30288;50.514;9.678;2023-03-22T00:04:26;98440.94;;;4.36;100.00
29903;BME280;30288;50.514;9.678;2023-03-22T00:06:32;98444.28;;;4.29;100.00
29903;BME280;30288;50.514;9.678;2023-03-22T00:08:37;98444.31;;;4.23;100.00
29903;BME280;30288;50.514;9.678;2023-03-22T00:10:42;98435.19;;;4.25;100.00
29903;BME280;30288;50.514;9.678;2023-03-22T00:12:47;98434.34;;;4.26;100.00
29903;BME280;30288;50.514;9.678;2023-03-22T00:14:52;98440.94;;;4.33;100.00
29903;BME280;30288;50.514;9.678;2023-03-22T00:16:57;98435.09;;;4.36;100.00
29903;BME280;30288;50.514;9.678;2023-03-22T00:19:03;98435.97;;;4.30;100.00
29903;BME280;30288;50.514;9.678;2023-03-22T00:21:14;98429.25;;;4.42;100.00
29903;BME280;30288;50.514;9.678;2023-03-22T00:23:20;98429.28;;;4.35;100.00
29903;BME280;30288;50.514;9.678;2023-03-22T00:25:26;98424.31;;;4.32;100.00
29903;BME280;30288;50.514;9.678;2023-03-22T00:27:31;98432.63;;;4.34;100.00
29903;BME280;30288;50.514;9.678;2023-03-22T00:29:37;98429.38;;;4.26;100.00
29903;BME280;30288;50.514;9.678;2023-03-22T00:31:44;98432.63;;;4.34;100.00
29903;BME280;30288;50.514;9.678;2023-03-22T00:33:50;98423.47;;;4.36;100.00
29903;BME280;30288;50.514;9.678;2023-03-22T00:35:58;98422.59;;;4.40;100.00
29903;BME280;30288;50.514;9.678;2023-03-22T00:38:07;98414.28;;;4.42;100.00
29903;BME280;30288;50.514;9.678;2023-03-22T00:40:17;98416.75;;;4.45;100.00
29903;BME280;30288;50.514;9.678;2023-03-22T00:42:24;98412.63;;;4.40;100.00
29903;BME280;30288;50.514;9.678;2023-03-22T00:44:29;98407.69;;;4.36;100.00
29903;BME280;30288;50.514;9.678;2023-03-22T00:46:34;98406.03;;;4.33;100.00
29903;BME280;30288;50.514;9.678;2023-03-22T00:48:39;98405.19;;;4.33;100.00
29903;BME280;30288;50.514;9.678;2023-03-22T00:50:44;98402.75;;;4.28;100.00
29903;BME280;30288;50.514;9.678;2023-03-22T00:52:50;98400.25;;;4.31;100.00
29903;BME280;30288;50.514;9.678;2023-03-22T00:54:58;98400.97;;;4.46;100.00
29903;BME280;30288;50.514;9.678;2023-03-22T00:57:03;98400.81;;;4.58;100.00
29903;BME280;30288;50.514;9.678;2023-03-22T00:59:09;98397.41;;;4.68;100.00
29903;BME280;30288;50.514;9.678;2023-03-22T01:01:16;98400.59;;;4.82;100.00
29903;BME280;30288;50.514;9.678;2023-03-22T01:03:22;98405.63;;;4.79;100.00
29903;BME280;30288;50.514;9.678;2023-03-22T01:05:29;98397.31;;;4.77;100.00
29903;BME280;30288;50.514;9.678;2023-03-22T01:07:35;98396.56;;;4.70;100.00
29903;BME280;30288;50.514;9.678;2023-03-22T01:09:43;98394.13;;;4.63;100.00
29903;BME280;30288;50.514;9.678;2023-03-22T01:11:51;98400.00;;;4.59;100.00
29903;BME280;30288;50.514;9.678;2023-03-22T01:13:57;98391.78;;;4.51;100.00
29903;BME280;30288;50.514;9.678;2023-03-22T01:16:03;98390.91;;;4.52;100.00
29903;BME280;30288;50.514;9.678;2023-03-22T01:18:09;98385.09;;;4.53;100.00
29903;BME280;30288;50.514;9.678;2023-03-22T01:20:14;98389.38;;;4.42;100.00
29903;BME280;30288;50.514;9.678;2023-03-22T01:22:20;98381.88;;;4.42;100.00
29903;BME280;30288;50.514;9.678;2023-03-22T01:24:25;98377.75;;;4.37;100.00
29903;BME280;30288;50.514;9.678;2023-03-22T01:26:30;98370.94;;;4.55;100.00
29903;BME280;30288;50.514;9.678;2023-03-22T01:28:39;98378.44;;;4.52;100.00
29903;BME280;30288;50.514;9.678;2023-03-22T01:30:44;98375.19;;;4.42;100.00
29903;BME280;30288;50.514;9.678;2023-03-22T01:32:50;98374.41;;;4.42;100.00
29903;BME280;30288;50.514;9.678;2023-03-22T01:34:55;98367.72;;;4.44;100.00
29903;BME280;30288;50.514;9.678;2023-03-22T01:37:03;98373.50;;;4.49;100.00
29903;BME280;30288;50.514;9.678;2023-03-22T01:39:10;98365.19;;;4.48;100.00
29903;BME280;30288;50.514;9.678;2023-03-22T01:41:18;98364.44;;;4.42;100.00
29903;BME280;30288;50.514;9.678;2023-03-22T01:43:24;98371.13;;;4.33;100.00
29903;BME280;30288;50.514;9.678;2023-03-22T01:45:46;98367.06;;;4.23;100.00
29903;BME280;30288;50.514;9.678;2023-03-22T01:47:56;98365.47;;;4.16;100.00
29903;BME280;30288;50.514;9.678;2023-03-22T01:50:03;98362.25;;;4.05;100.00
29903;BME280;30288;50.514;9.678;2023-03-22T01:52:12;98359.81;;;3.99;100.00
29903;BME280;30288;50.514;9.678;2023-03-22T01:54:31;98356.47;;;4.00;100.00
29903;BME280;30288;50.514;9.678;2023-03-22T01:56:52;98353.19;;;3.95;100.00
29903;BME280;30288;50.514;9.678;2023-03-22T01:59:11;98354.84;;;3.97;100.00
29903;BME280;30288;50.514;9.678;2023-03-22T02:01:40;98348.25;;;3.89;100.00
29903;BME280;30288;50.514;9.678;2023-03-22T02:03:52;98346.56;;;3.91;100.00
29903;BME280;30288;50.514;9.678;2023-03-22T02:05:59;98346.59;;;3.89;100.00
29903;BME280;30288;50.514;9.678;2023-03-22T02:08:04;98349.81;;;4.02;100.00
29903;BME280;30288;50.514;9.678;2023-03-22T02:10:27;98341.56;;;3.97;100.00
29903;BME280;30288;50.514;9.678;2023-03-22T02:12:46;98342.31;;;4.07;100.00
29903;BME280;30288;50.514;9.678;2023-03-22T02:15:14;98335.63;;;4.13;100.00
29903;BME280;30288;50.514;9.678;2023-03-22T02:17:51;98333.91;;;4.14;100.00
29903;BME280;30288;50.514;9.678;2023-03-22T02:23:27;98329.69;;;4.23;100.00
29903;BME280;30288;50.514;9.678;2023-03-22T02:26:06;98333.78;;;4.32;100.00
29903;BME280;30288;50.514;9.678;2023-03-22T02:28:37;98336.13;;;4.46;100.00
29903;BME280;30288;50.514;9.678;2023-03-22T02:37:10;98333.34;;;4.73;100.00
29903;BME280;30288;50.514;9.678;2023-03-22T02:39:33;98334.22;;;4.66;100.00
29903;BME280;30288;50.514;9.678;2023-03-22T02:41:51;98330.94;;;4.64;100.00
29903;BME280;30288;50.514;9.678;2023-03-22T02:44:05;98329.31;;;4.61;100.00
29903;BME280;30288;50.514;9.678;2023-03-22T02:46:18;98328.44;;;4.65;100.00
29903;BME280;30288;50.514;9.678;2023-03-22T02:48:29;98331.00;;;4.61;100.00
29903;BME280;30288;50.514;9.678;2023-03-22T02:50:40;98331.84;;;4.58;100.00
29903;BME280;30288;50.514;9.678;2023-03-22T02:52:51;98332.72;;;4.56;100.00
29903;BME280;30288;50.514;9.678;2023-03-22T02:55:07;98331.94;;;4.48;100.00
29903;BME280;30288;50.514;9.678;2023-03-22T02:57:19;98336.94;;;4.48;100.00
29903;BME280;30288;50.514;9.678;2023-03-22T02:59:31;98332.72;;;4.53;100.00
29903;BME280;30288;50.514;9.678;2023-03-22T03:01:43;98335.25;;;4.50;100.00
29903;BME280;30288;50.514;9.678;2023-03-22T03:03:53;98336.91;;;4.51;100.00
29903;BME280;30288;50.514;9.678;2023-03-22T03:06:03;98338.59;;;4.50;100.00
29903;BME280;30288;50.514;9.678;2023-03-22T03:08:12;98334.44;;;4.48;100.00
29903;BME280;30288;50.514;9.678;2023-03-22T03:10:23;98336.97;;;4.46;100.00
29903;BME280;30288;50.514;9.678;2023-03-22T03:12:29;98336.16;;;4.43;100.00
29903;BME280;30288;50.514;9.678;2023-03-22T03:14:35;98329.53;;;4.42;100.00
29903;BME280;30288;50.514;9.678;2023-03-22T03:16:40;98330.41;;;4.36;100.00
29903;BME280;30288;50.514;9.678;2023-03-22T03:18:53;98327.97;;;4.31;100.00
29903;BME280;30288;50.514;9.678;2023-03-22T03:21:08;98331.34;;;4.27;100.00
29903;BME280;30288;50.514;9.678;2023-03-22T03:23:27;98323.91;;;4.18;100.00
29903;BME280;30288;50.514;9.678;2023-03-22T03:25:40;98326.41;;;4.21;100.00
29903;BME280;30288;50.514;9.678;2023-03-22T03:27:58;98322.91;;;4.37;100.00
29903;BME280;30288;50.514;9.678;2023-03-22T03:30:12;98318.69;;;4.43;100.00
29903;BME280;30288;50.514;9.678;2023-03-22T03:32:24;98317.91;;;4.39;100.00
29903;BME280;30288;50.514;9.678;2023-03-22T03:34:33;98321.31;;;4.30;100.00
29903;BME280;30288;50.514;9.678;2023-03-22T03:36:45;98318.00;;;4.28;100.00
29903;BME280;30288;50.514;9.678;2023-03-22T03:38:54;98316.34;;;4.30;100.00
29903;BME280;30288;50.514;9.678;2023-03-22T03:41:07;98318.00;;;4.28;100.00
29903;BME280;30288;50.514;9.678;2023-03-22T03:43:16;98312.22;;;4.26;100.00
29903;BME280;30288;50.514;9.678;2023-03-22T03:45:24;98312.28;;;4.22;100.00
29903;BME280;30288;50.514;9.678;2023-03-22T03:47:31;98309.00;;;4.14;100.00
29903;BME280;30288;50.514;9.678;2023-03-22T03:49:38;98309.03;;;4.09;100.00
29903;BME280;30288;50.514;9.678;2023-03-22T03:51:48;98309.91;;;4.05;100.00
29903;BME280;30288;50.514;9.678;2023-03-22T03:53:54;98299.94;;;4.05;100.00
29903;BME280;30288;50.514;9.678;2023-03-22T03:55:59;98299.91;;;4.11;100.00
29903;BME280;30288;50.514;9.678;2023-03-22T03:58:13;98299.91;;;4.13;100.00
29903;BME280;30288;50.514;9.678;2023-03-22T04:00:21;98296.50;;;4.18;100.00
29903;BME280;30288;50.514;9.678;2023-03-22T04:02:45;98299.03;;;4.17;100.00
29903;BME280;30288;50.514;9.678;2023-03-22T04:05:11;98285.69;;;4.19;100.00
29903;BME280;30288;50.514;9.678;2023-03-22T04:07:16;98283.19;;;4.19;100.00
29903;BME280;30288;50.514;9.678;2023-03-22T04:09:22;98281.53;;;4.18;100.00
29903;BME280;30288;50.514;9.678;2023-03-22T04:11:33;98286.53;;;4.18;100.00
29903;BME280;30288;50.514;9.678;2023-03-22T04:13:41;98286.56;;;4.15;100.00
29903;BME280;30288;50.514;9.678;2023-03-22T04:15:54;98283.34;;;4.07;100.00
29903;BME280;30288;50.514;9.678;2023-03-22T04:18:08;98289.34;;;3.82;100.00
29903;BME280;30288;50.514;9.678;2023-03-22T04:20:13;98285.34;;;3.66;100.00
29903;BME280;30288;50.514;9.678;2023-03-22T04:22:19;98292.09;;;3.48;100.00
29903;BME280;30288;50.514;9.678;2023-03-22T04:24:25;98295.50;;;3.38;100.00
29903;BME280;30288;50.514;9.678;2023-03-22T04:26:31;98290.56;;;3.32;100.00
29903;BME280;30288;50.514;9.678;2023-03-22T04:28:54;98297.25;;;3.21;100.00
29903;BME280;30288;50.514;9.678;2023-03-22T04:31:00;98286.47;;;3.21;100.00
29903;BME280;30288;50.514;9.678;2023-03-22T04:33:19;98285.59;;;3.32;100.00
29903;BME280;30288;50.514;9.678;2023-03-22T04:35:42;98276.47;;;3.30;100.00
29903;BME280;30288;50.514;9.678;2023-03-22T04:37:49;98268.97;;;3.34;100.00
29903;BME280;30288;50.514;9.678;2023-03-22T04:39:56;98267.38;;;3.24;100.00
29903;BME280;30288;50.514;9.678;2023-03-22T04:42:11;98267.47;;;3.12;100.00
29903;BME280;30288;50.514;9.678;2023-03-22T04:44:19;98269.22;;;2.92;100.00
29903;BME280;30288;50.514;9.678;2023-03-22T04:46:25;98270.94;;;2.81;100.00
29903;BME280;30288;50.514;9.678;2023-03-22T04:48:37;98271.78;;;2.72;100.00
29903;BME280;30288;50.514;9.678;2023-03-22T04:50:44;98269.34;;;2.64;100.00
29903;BME280;30288;50.514;9.678;2023-03-22T04:52:50;98268.53;;;2.59;100.00
29903;BME280;30288;50.514;9.678;2023-03-22T04:54:54;98260.31;;;2.51;100.00
29903;BME280;30288;50.514;9.678;2023-03-22T04:57:00;98271.03;;;2.53;100.00
29903;BME280;30288;50.514;9.678;2023-03-22T04:59:11;98274.38;;;2.43;100.00
29903;BME280;30288;50.514;9.678;2023-03-22T05:01:22;98271.09;;;2.41;100.00
29903;BME280;30288;50.514;9.678;2023-03-22T05:03:39;98266.13;;;2.41;100.00
29903;BME280;30288;50.514;9.678;2023-03-22T05:05:50;98266.09;;;2.47;100.00
29903;BME280;30288;50.514;9.678;2023-03-22T05:07:57;98265.28;;;2.47;100.00
29903;BME280;30288;50.514;9.678;2023-03-22T05:10:02;98266.09;;;2.44;100.00
29903;BME280;30288;50.514;9.678;2023-03-22T05:12:07;98264.44;;;2.49;100.00
29903;BME280;30288;50.514;9.678;2023-03-22T05:14:23;98266.91;;;2.49;100.00
29903;BME280;30288;50.514;9.678;2023-03-22T05:16:30;98257.81;;;2.48;100.00
29903;BME280;30288;50.514;9.678;2023-03-22T05:18:36;98266.91;;;2.54;100.00
29903;BME280;30288;50.514;9.678;2023-03-22T05:20:43;98266.09;;;2.56;100.00
29903;BME280;30288;50.514;9.678;2023-03-22T05:22:52;98272.72;;;2.48;100.00
29903;BME280;30288;50.514;9.678;2023-03-22T05:25:00;98264.44;;;2.43;100.00
29903;BME280;30288;50.514;9.678;2023-03-22T05:27:05;98267.78;;;2.42;100.00
29903;BME280;30288;50.514;9.678;2023-03-22T05:29:11;98269.44;;;2.40;100.00
29903;BME280;30288;50.514;9.678;2023-03-22T05:31:38;98274.41;;;2.40;100.00
29903;BME280;30288;50.514;9.678;2023-03-22T05:33:44;98281.06;;;2.32;100.00
29903;BME280;30288;50.514;9.678;2023-03-22T05:35:51;98284.38;;;2.31;100.00
29903;BME280;30288;50.514;9.678;2023-03-22T05:37:57;98281.91;;;2.25;100.00
29903;BME280;30288;50.514;9.678;2023-03-22T05:40:07;98286.03;;;2.20;100.00
29903;BME280;30288;50.514;9.678;2023-03-22T05:42:16;98278.59;;;2.28;100.00
29903;BME280;30288;50.514;9.678;2023-03-22T05:44:21;98272.75;;;2.33;100.00
29903;BME280;30288;50.514;9.678;2023-03-22T05:46:44;98284.38;;;2.31;100.00
29903;BME280;30288;50.514;9.678;2023-03-22T05:49:05;98279.44;;;2.22;100.00
29903;BME280;30288;50.514;9.678;2023-03-22T05:51:15;98277.75;;;2.30;100.00
29903;BME280;30288;50.514;9.678;2023-03-22T05:53:25;98281.91;;;2.33;100.00
29903;BME280;30288;50.514;9.678;2023-03-22T05:55:34;98279.38;;;2.40;100.00
29903;BME280;30288;50.514;9.678;2023-03-22T05:57:40;98281.78;;;2.57;100.00
29903;BME280;30288;50.514;9.678;2023-03-22T05:59:46;98289.22;;;2.61;100.00
29903;BME280;30288;50.514;9.678;2023-03-22T06:02:00;98285.88;;;2.72;100.00
29903;BME280;30288;50.514;9.678;2023-03-22T06:04:06;98295.84;;;2.75;100.00
29903;BME280;30288;50.514;9.678;2023-03-22T06:06:23;98289.16;;;2.89;100.00
29903;BME280;30288;50.514;9.678;2023-03-22T06:08:55;98295.72;;;2.97;100.00
29903;BME280;30288;50.514;9.678;2023-03-22T06:11:17;98289.94;;;2.97;100.00
29903;BME280;30288;50.514;9.678;2023-03-22T06:13:22;98292.38;;;3.03;100.00
29903;BME280;30288;50.514;9.678;2023-03-22T06:15:27;98294.84;;;3.04;100.00
29903;BME280;30288;50.514;9.678;2023-03-22T06:17:53;98287.38;;;3.09;100.00
29903;BME280;30288;50.514;9.678;2023-03-22T06:20:02;98290.66;;;3.17;100.00
29903;BME280;30288;50.514;9.678;2023-03-22T06:22:14;98295.56;;;3.26;100.00
29903;BME280;30288;50.514;9.678;2023-03-22T06:24:20;98297.19;;;3.33;100.00
29903;BME280;30288;50.514;9.678;2023-03-22T06:26:25;98290.50;;;3.38;100.00
29903;BME280;30288;50.514;9.678;2023-03-22T06:28:30;98297.16;;;3.39;100.00
29903;BME280;30288;50.514;9.678;2023-03-22T06:30:36;98295.41;;;3.47;100.00
29903;BME280;30288;50.514;9.678;2023-03-22T06:33:11;98292.09;;;3.48;100.00
29903;BME280;30288;50.514;9.678;2023-03-22T06:35:20;98289.63;;;3.48;100.00
29903;BME280;30288;50.514;9.678;2023-03-22T06:37:25;98291.28;;;3.49;100.00
29903;BME280;30288;50.514;9.678;2023-03-22T06:39:31;98292.09;;;3.51;100.00
29903;BME280;30288;50.514;9.678;2023-03-22T06:41:37;98283.75;;;3.59;100.00
29903;BME280;30288;50.514;9.678;2023-03-22T06:43:42;98296.88;;;3.76;100.00
29903;BME280;30288;50.514;9.678;2023-03-22T06:46:02;98288.41;;;3.95;100.00
29903;BME280;30288;50.514;9.678;2023-03-22T06:48:15;98293.25;;;4.13;100.00
29903;BME280;30288;50.514;9.678;2023-03-22T06:50:32;98297.22;;;4.31;100.00
29903;BME280;30288;50.514;9.678;2023-03-22T06:52:47;98290.38;;;4.51;100.00
29903;BME280;30288;50.514;9.678;2023-03-22T06:54:53;98287.63;;;4.71;100.00
29903;BME280;30288;50.514;9.678;2023-03-22T06:56:58;98285.69;;;4.94;100.00
29903;BME280;30288;50.514;9.678;2023-03-22T06:59:04;98277.91;;;5.17;100.00
29903;BME280;30288;50.514;9.678;2023-03-22T07:01:09;98266.78;;;5.38;100.00
29903;BME280;30288;50.514;9.678;2023-03-22T07:03:17;98266.41;;;5.62;100.00
29903;BME280;30288;50.514;9.678;2023-03-22T07:05:32;98266.00;;;5.86;100.00
29903;BME280;30288;50.514;9.678;2023-03-22T07:07:37;98268.03;;;6.17;100.00
29903;BME280;30288;50.514;9.678;2023-03-22T07:09:42;98270.72;;;6.50;100.00
29903;BME280;30288;50.514;9.678;2023-03-22T07:11:47;98281.69;;;6.86;100.00
29903;BME280;30288;50.514;9.678;2023-03-22T07:13:53;98277.13;;;7.03;100.00
29903;BME280;30288;50.514;9.678;2023-03-22T07:16:02;98269.28;;;7.20;100.00
29903;BME280;30288;50.514;9.678;2023-03-22T07:18:17;98271.34;;;7.40;100.00
29903;BME280;30288;50.514;9.678;2023-03-22T07:20:22;98271.00;;;7.55;100.00
29903;BME280;30288;50.514;9.678;2023-03-22T07:22:27;98272.03;;;7.80;100.00
29903;BME280;30288;50.514;9.678;2023-03-22T07:24:32;98273.47;;;7.90;100.00
29903;BME280;30288;50.514;9.678;2023-03-22T07:26:48;98274.03;;;8.02;100.00
29903;BME280;30288;50.514;9.678;2023-03-22T07:28:58;98273.72;;;8.14;100.00
29903;BME280;30288;50.514;9.678;2023-03-22T07:31:09;98276.59;;;8.32;100.00
29903;BME280;30288;50.514;9.678;2023-03-22T07:33:35;98282.66;;;8.56;100.00
29903;BME280;30288;50.514;9.678;2023-03-22T07:35:40;98284.66;;;8.74;100.00
29903;BME280;30288;50.514;9.678;2023-03-22T07:37:46;98278.38;;;8.89;100.00
29903;BME280;30288;50.514;9.678;2023-03-22T07:39:57;98268.72;;;9.05;100.00
29903;BME280;30288;50.514;9.678;2023-03-22T07:42:05;98272.34;;;9.24;100.00
29903;BME280;30288;50.514;9.678;2023-03-22T07:44:16;98268.97;;;9.51;100.00
29903;BME280;30288;50.514;9.678;2023-03-22T07:46:39;98269.75;;;9.80;100.00
29903;BME280;30288;50.514;9.678;2023-03-22T07:49:07;98275.16;;;9.94;100.00
29903;BME280;30288;50.514;9.678;2023-03-22T07:51:37;98265.69;;;10.27;100.00
29903;BME280;30288;50.514;9.678;2023-03-22T07:53:43;98270.84;;;10.48;100.00
29903;BME280;30288;50.514;9.678;2023-03-22T07:55:48;98264.59;;;10.59;100.00
29903;BME280;30288;50.514;9.678;2023-03-22T07:57:54;98263.41;;;10.69;100.00
29903;BME280;30288;50.514;9.678;2023-03-22T07:59:59;98259.78;;;10.76;100.00
29903;BME280;30288;50.514;9.678;2023-03-22T08:02:22;98262.03;;;11.05;100.00
29903;BME280;30288;50.514;9.678;2023-03-22T08:04:32;98269.44;;;11.31;100.00
29903;BME280;30288;50.514;9.678;2023-03-22T08:06:51;98269.25;;;11.58;100.00
29903;BME280;30288;50.514;9.678;2023-03-22T08:08:59;98271.78;;;11.58;100.00
29903;BME280;30288;50.514;9.678;2023-03-22T08:11:06;98268.25;;;11.62;100.00
29903;BME280;30288;50.514;9.678;2023-03-22T08:13:11;98274.81;;;11.66;100.00
29903;BME280;30288;50.514;9.678;2023-03-22T08:15:16;98271.84;;;11.78;100.00
29903;BME280;30288;50.514;9.678;2023-03-22T08:17:24;98271.59;;;12.04;100.00
29903;BME280;30288;50.514;9.678;2023-03-22T08:19:31;98265.88;;;12.01;100.00
29903;BME280;30288;50.514;9.678;2023-03-22T08:21:37;98272.13;;;11.92;100.00
29903;BME280;30288;50.514;9.678;2023-03-22T08:23:52;98271.59;;;12.04;100.00
29903;BME280;30288;50.514;9.678;2023-03-22T08:26:23;98276.50;;;12.07;100.00
29903;BME280;30288;50.514;9.678;2023-03-22T08:28:31;98275.53;;;12.11;100.00
29903;BME280;30288;50.514;9.678;2023-03-22T08:30:37;98271.34;;;11.90;100.00
29903;BME280;30288;50.514;9.678;2023-03-22T08:32:42;98284.56;;;11.75;100.00
29903;BME280;30288;50.514;9.678;2023-03-22T08:34:50;98288.66;;;11.56;100.00
29903;BME280;30288;50.514;9.678;2023-03-22T08:36:56;98280.44;;;11.51;100.00
29903;BME280;30288;50.514;9.678;2023-03-22T08:39:01;98285.13;;;11.60;100.00
29903;BME280;30288;50.514;9.678;2023-03-22T08:41:16;98279.16;;;11.84;100.00
29903;BME280;30288;50.514;9.678;2023-03-22T08:43:21;98278.09;;;11.90;100.00
29903;BME280;30288;50.514;9.678;2023-03-22T08:45:26;98279.03;;;11.87;100.00
29903;BME280;30288;50.514;9.678;2023-03-22T08:47:44;98276.06;;;11.98;100.00
29903;BME280;30288;50.514;9.678;2023-03-22T08:49:54;98269.72;;;12.09;100.00
29903;BME280;30288;50.514;9.678;2023-03-22T08:52:09;98266.41;;;12.27;100.00
29903;BME280;30288;50.514;9.678;2023-03-22T08:54:30;98266.03;;;12.55;100.00
29903;BME280;30288;50.514;9.678;2023-03-22T08:56:35;98270.50;;;12.69;100.00
29903;BME280;30288;50.514;9.678;2023-03-22T08:58:55;98269.91;;;12.83;100.00
29903;BME280;30288;50.514;9.678;2023-03-22T09:01:10;98264.66;;;12.87;100.00
29903;BME280;30288;50.514;9.678;2023-03-22T09:03:22;98265.59;;;13.22;100.00
29903;BME280;30288;50.514;9.678;2023-03-22T09:05:30;98267.78;;;13.30;100.00
29903;BME280;30288;50.514;9.678;2023-03-22T09:07:35;98267.63;;;13.33;100.00
29903;BME280;30288;50.514;9.678;2023-03-22T09:09:52;98264.44;;;13.10;100.00
29903;BME280;30288;50.514;9.678;2023-03-22T09:12:00;98252.66;;;13.11;100.00
29903;BME280;30288;50.514;9.678;2023-03-22T09:14:05;98260.69;;;13.00;100.00
29903;BME280;30288;50.514;9.678;2023-03-22T09:16:11;98254.53;;;13.25;100.00
29903;BME280;30288;50.514;9.678;2023-03-22T09:18:19;98247.59;;;13.11;100.00
29903;BME280;30288;50.514;9.678;2023-03-22T09:20:26;98254.13;;;12.96;100.00
29903;BME280;30288;50.514;9.678;2023-03-22T09:22:34;98253.94;;;12.82;100.00
29903;BME280;30288;50.514;9.678;2023-03-22T09:24:39;98241.59;;;12.93;100.00
29903;BME280;30288;50.514;9.678;2023-03-22T09:26:45;98242.72;;;13.06;100.00
29903;BME280;30288;50.514;9.678;2023-03-22T09:28:52;98234.00;;;13.31;100.00
29903;BME280;30288;50.514;9.678;2023-03-22T09:30:59;98222.53;;;13.24;100.00
29903;BME280;30288;50.514;9.678;2023-03-22T09:33:05;98228.16;;;13.65;100.00
29903;BME280;30288;50.514;9.678;2023-03-22T09:35:12;98223.78;;;13.68;100.00
29903;BME280;30288;50.514;9.678;2023-03-22T09:37:38;98222.88;;;13.86;100.00
29903;BME280;30288;50.514;9.678;2023-03-22T09:39:44;98216.91;;;14.05;100.00
29903;BME280;30288;50.514;9.678;2023-03-22T09:41:53;98209.53;;;14.00;100.00
29903;BME280;30288;50.514;9.678;2023-03-22T09:44:03;98204.00;;;14.09;100.00
29903;BME280;30288;50.514;9.678;2023-03-22T09:46:14;98214.97;;;14.10;100.00
29903;BME280;30288;50.514;9.678;2023-03-22T09:48:27;98212.13;;;13.98;100.00
29903;BME280;30288;50.514;9.678;2023-03-22T09:50:34;98208.59;;;13.51;100.00
29903;BME280;30288;50.514;9.678;2023-03-22T09:52:46;98212.50;;;13.03;100.00
29903;BME280;30288;50.514;9.678;2023-03-22T09:54:52;98205.50;;;12.91;100.00
29903;BME280;30288;50.514;9.678;2023-03-22T09:57:01;98207.81;;;12.77;100.00
29903;BME280;30288;50.514;9.678;2023-03-22T09:59:14;98221.59;;;12.89;100.00
29903;BME280;30288;50.514;9.678;2023-03-22T10:01:29;98218.81;;;13.31;100.00
29903;BME280;30288;50.514;9.678;2023-03-22T10:04:03;98188.06;;;13.40;100.00
29903;BME280;30288;50.514;9.678;2023-03-22T10:06:18;98206.41;;;13.07;100.00
29903;BME280;30288;50.514;9.678;2023-03-22T10:08:38;98192.75;;;13.11;100.00
29903;BME280;30288;50.514;9.678;2023-03-22T10:10:44;98187.47;;;13.52;100.00
29903;BME280;30288;50.514;9.678;2023-03-22T10:12:55;98182.38;;;13.86;100.00
29903;BME280;30288;50.514;9.678;2023-03-22T10:15:10;98182.34;;;14.03;100.00
29903;BME280;30288;50.514;9.678;2023-03-22T10:17:18;98178.38;;;14.15;100.00
29903;BME280;30288;50.514;9.678;2023-03-22T10:19:33;98178.63;;;14.59;100.00
29903;BME280;30288;50.514;9.678;2023-03-22T10:21:39;98177.16;;;14.55;100.00
29903;BME280;30288;50.514;9.678;2023-03-22T10:23:53;98169.63;;;14.85;100.00
29903;BME280;30288;50.514;9.678;2023-03-22T10:26:02;98158.81;;;14.97;100.00
29903;BME280;30288;50.514;9.678;2023-03-22T10:28:17;98172.75;;;14.90;100.00
29903;BME280;30288;50.514;9.678;2023-03-22T10:30:25;98159.34;;;14.57;100.00
29903;BME280;30288;50.514;9.678;2023-03-22T10:32:39;98160.13;;;14.41;100.00
29903;BME280;30288;50.514;9.678;2023-03-22T10:34:58;98143.97;;;14.75;100.00
29903;BME280;30288;50.514;9.678;2023-03-22T10:37:05;98145.56;;;14.92;100.00
29903;BME280;30288;50.514;9.678;2023-03-22T10:39:26;98145.66;;;14.91;100.00
29903;BME280;30288;50.514;9.678;2023-03-22T10:41:33;98152.53;;;14.88;100.00
29903;BME280;30288;50.514;9.678;2023-03-22T10:43:39;98153.44;;;14.87;100.00
29903;BME280;30288;50.514;9.678;2023-03-22T10:45:45;98152.09;;;15.12;100.00
29903;BME280;30288;50.514;9.678;2023-03-22T10:47:56;98149.47;;;15.13;100.00
29903;BME280;30288;50.514;9.678;2023-03-22T10:50:07;98149.16;;;15.04;100.00
29903;BME280;30288;50.514;9.678;2023-03-22T10:52:35;98139.00;;;15.04;100.00
29903;BME280;30288;50.514;9.678;2023-03-22T10:54:44;98154.91;;;14.92;100.00
29903;BME280;30288;50.514;9.678;2023-03-22T10:56:50;98143.72;;;14.49;100.00
29903;BME280;30288;50.514;9.678;2023-03-22T10:58:55;98153.25;;;14.28;100.00
29903;BME280;30288;50.514;9.678;2023-03-22T11:01:06;98143.63;;;14.50;100.00
29903;BME280;30288;50.514;9.678;2023-03-22T11:03:29;98146.31;;;14.94;100.00
29903;BME280;30288;50.514;9.678;2023-03-22T11:05:34;98139.94;;;15.32;100.00
29903;BME280;30288;50.514;9.678;2023-03-22T11:07:43;98149.91;;;15.80;100.00
29903;BME280;30288;50.514;9.678;2023-03-22T11:12:31;98142.50;;;15.91;100.00
29903;BME280;30288;50.514;9.678;2023-03-22T11:14:41;98140.31;;;15.99;100.00
29903;BME280;30288;50.514;9.678;2023-03-22T11:16:51;98137.41;;;16.19;100.00
29903;BME280;30288;50.514;9.678;2023-03-22T11:19:00;98154.72;;;15.84;100.00
29903;BME280;30288;50.514;9.678;2023-03-22T11:21:09;98154.09;;;15.95;100.00
29903;BME280;30288;50.514;9.678;2023-03-22T11:23:14;98138.66;;;15.69;100.00
29903;BME280;30288;50.514;9.678;2023-03-22T11:25:27;98156.59;;;15.52;100.00
29903;BME280;30288;50.514;9.678;2023-03-22T11:27:33;98143.84;;;15.38;100.00
29903;BME280;30288;50.514;9.678;2023-03-22T11:29:42;98156.81;;;15.18;100.00
29903;BME280;30288;50.514;9.678;2023-03-22T11:31:57;98150.56;;;14.94;100.00
29903;BME280;30288;50.514;9.678;2023-03-22T11:34:02;98152.84;;;14.98;100.00
29903;BME280;30288;50.514;9.678;2023-03-22T11:36:16;98151.13;;;14.99;100.00
29903;BME280;30288;50.514;9.678;2023-03-22T11:38:24;98152.59;;;15.03;100.00
29903;BME280;30288;50.514;9.678;2023-03-22T11:40:34;98156.19;;;14.99;100.00